Time;durP1;ratioP1;P1;durP2;ratioP2;P2;SDS_P1;SDS_P2;PMS_P1;PMS_P2;Temp;Humidity;BMP_temperature;BMP_pressure;BME280_temperature;BME280_humidity;BME280_pressure;Samples;Min_cycle;Max_cycle;Signal;HPM_P1;HPM_P2
2021/12/20 00:00:42;;;;;;;;;;;25.80;99.90;;;;;;5055372;28;19908;-74
2021/12/20 00:03:09;;;;;;;;;;;25.90;99.90;;;;;;5054454;28;19913;-73
2021/12/20 00:05:36;;;;;;;;;;;26.10;99.90;;;;;;5054149;28;20054;-72
2021/12/20 00:08:03;;;;;;;;;;;26.10;99.90;;;;;;5053667;28;20007;-73
2021/12/20 00:10:29;;;;;;;;;;;25.90;99.90;;;;;;5085751;28;20421;-73
2021/12/20 00:12:56;;;;;;;;;;;25.80;99.90;;;;;;5085923;28;19909;-73
2021/12/20 00:15:23;;;;;;;;;;;25.70;99.90;;;;;;5054172;28;19995;-72
2021/12/20 00:17:49;;;;;;;;;;;25.70;99.90;;;;;;5053667;28;19920;-74
2021/12/20 00:20:17;;;;;;;;;;;25.60;99.90;;;;;;5054102;28;19963;-72
2021/12/20 00:22:44;;;;;;;;;;;25.70;99.90;;;;;;5054664;28;19939;-74
2021/12/20 00:25:10;;;;;;;;;;;25.80;99.90;;;;;;5053914;28;19948;-73
2021/12/20 00:27:37;;;;;;;;;;;26.10;99.90;;;;;;5054181;28;19923;-74
2021/12/20 00:30:05;;;;;;;;;;;26.30;99.90;;;;;;5053877;28;20394;-71
2021/12/20 00:32:33;;;;;;;;;;;26.60;99.90;;;;;;5053990;28;20271;-73
2021/12/20 00:35:00;;;;;;;;;;;26.80;99.90;;;;;;5056202;28;19915;-72
2021/12/20 00:40:21;;;;;;;;;;;27.20;99.90;;;;;;5054224;28;19916;-73
2021/12/20 00:42:51;;;;;;;;;;;27.40;99.90;;;;;;5054173;28;19908;-73
2021/12/20 00:45:18;;;;;;;;;;;27.50;99.90;;;;;;5053473;28;19939;-71
2021/12/20 00:47:45;;;;;;;;;;;27.80;99.90;;;;;;5053354;28;19919;-73
2021/12/20 00:50:13;;;;;;;;;;;27.90;99.90;;;;;;5052855;28;19985;-74
2021/12/20 00:52:40;;;;;;;;;;;28.00;99.90;;;;;;5053177;28;19909;-74
2021/12/20 00:55:08;;;;;;;;;;;28.20;99.90;;;;;;5053071;28;19932;-73
2021/12/20 00:57:34;;;;;;;;;;;28.70;99.90;;;;;;5052990;28;19915;-74
2021/12/20 01:00:01;;;;;;;;;;;29.00;99.90;;;;;;5053108;28;19909;-74
2021/12/20 01:02:28;;;;;;;;;;;28.80;99.90;;;;;;5052901;28;19915;-74
2021/12/20 01:04:55;;;;;;;;;;;28.50;99.90;;;;;;5053123;28;19947;-75
2021/12/20 01:07:21;;;;;;;;;;;28.50;99.90;;;;;;5052997;28;20371;-73
2021/12/20 01:09:48;;;;;;;;;;;28.40;99.90;;;;;;5052757;28;19943;-73
2021/12/20 01:12:19;;;;;;;;;;;28.10;99.90;;;;;;5053025;28;19909;-75
2021/12/20 01:14:46;;;;;;;;;;;27.80;99.90;;;;;;5052885;28;19909;-75
2021/12/20 01:17:13;;;;;;;;;;;27.50;99.90;;;;;;5052710;28;20367;-73
2021/12/20 01:19:40;;;;;;;;;;;27.20;99.90;;;;;;5052887;28;19955;-73
2021/12/20 01:22:06;;;;;;;;;;;27.00;99.90;;;;;;5052801;28;19915;-72
2021/12/20 01:24:33;;;;;;;;;;;27.50;99.90;;;;;;5052485;28;19909;-72
2021/12/20 01:27:00;;;;;;;;;;;27.70;99.90;;;;;;5052507;28;19944;-72
2021/12/20 01:29:27;;;;;;;;;;;28.00;99.90;;;;;;5052440;28;19967;-72
2021/12/20 01:31:53;;;;;;;;;;;28.20;99.90;;;;;;5052232;28;20011;-71
2021/12/20 01:34:20;;;;;;;;;;;28.00;99.90;;;;;;5052540;28;19909;-73
2021/12/20 01:36:47;;;;;;;;;;;28.20;99.90;;;;;;5052802;28;19909;-72
2021/12/20 01:39:13;;;;;;;;;;;28.50;99.90;;;;;;5052989;28;20000;-75
2021/12/20 01:41:41;;;;;;;;;;;29.00;99.90;;;;;;5053366;28;19961;-74
2021/12/20 01:44:08;;;;;;;;;;;29.60;99.90;;;;;;5051941;28;19920;-74
2021/12/20 01:46:35;;;;;;;;;;;29.40;99.90;;;;;;5052374;28;20253;-74
2021/12/20 01:49:04;;;;;;;;;;;29.30;99.90;;;;;;5052102;28;19970;-76
2021/12/20 01:53:58;;;;;;;;;;;29.40;99.90;;;;;;5052089;28;19909;-74
2021/12/20 01:56:26;;;;;;;;;;;28.90;99.90;;;;;;5052253;28;19909;-75
2021/12/20 01:58:52;;;;;;;;;;;28.50;99.90;;;;;;5052179;28;19988;-74
2021/12/20 02:01:19;;;;;;;;;;;28.50;99.90;;;;;;5052908;28;19913;-75
2021/12/20 02:03:51;;;;;;;;;;;28.30;99.90;;;;;;5056265;28;19909;-74
2021/12/20 02:08:44;;;;;;;;;;;28.00;99.90;;;;;;5056270;28;19917;-75
2021/12/20 02:11:11;;;;;;;;;;;27.90;99.90;;;;;;5056253;28;19928;-74
2021/12/20 02:13:39;;;;;;;;;;;27.90;99.90;;;;;;5056062;28;19909;-75
2021/12/20 02:16:05;;;;;;;;;;;28.00;99.90;;;;;;5055961;28;20352;-74
2021/12/20 02:18:32;;;;;;;;;;;28.00;99.90;;;;;;5056331;28;19909;-74
2021/12/20 02:20:59;;;;;;;;;;;28.00;99.90;;;;;;5056208;28;19916;-74
2021/12/20 02:23:26;;;;;;;;;;;28.10;99.90;;;;;;5056369;28;20047;-74
2021/12/20 02:25:53;;;;;;;;;;;28.00;99.90;;;;;;5056046;28;19909;-73
2021/12/20 02:28:21;;;;;;;;;;;28.10;99.90;;;;;;5055977;28;19916;-72
2021/12/20 02:37:03;;;;;;;;;;;27.50;99.90;;;;;;5014111;28;20515;-73
2021/12/20 02:39:30;;;;;;;;;;;27.60;99.90;;;;;;5044818;28;20001;-73
2021/12/20 02:41:56;;;;;;;;;;;27.50;99.90;;;;;;5055508;28;19916;-74
2021/12/20 02:44:25;;;;;;;;;;;27.30;99.90;;;;;;5055667;28;19909;-73
2021/12/20 02:49:20;;;;;;;;;;;27.40;99.90;;;;;;5055855;28;20050;-74
2021/12/20 02:51:49;;;;;;;;;;;27.40;99.90;;;;;;5055150;28;20527;-72
2021/12/20 02:54:16;;;;;;;;;;;27.50;99.90;;;;;;5055975;28;19909;-73
2021/12/20 02:56:43;;;;;;;;;;;27.60;99.90;;;;;;5055295;28;19916;-72
2021/12/20 02:59:10;;;;;;;;;;;27.50;99.90;;;;;;5055278;28;19919;-73
2021/12/20 03:01:38;;;;;;;;;;;27.50;99.90;;;;;;5055262;28;19909;-73
2021/12/20 03:04:05;;;;;;;;;;;27.50;99.90;;;;;;5055056;28;19985;-71
2021/12/20 03:06:41;;;;;;;;;;;27.50;99.90;;;;;;5055205;28;19916;-70
2021/12/20 03:09:10;;;;;;;;;;;27.60;99.90;;;;;;5055068;28;19921;-75
2021/12/20 03:11:37;;;;;;;;;;;27.70;99.90;;;;;;5055174;28;20283;-74
2021/12/20 03:14:18;;;;;;;;;;;27.60;99.90;;;;;;5054543;28;20341;-72
2021/12/20 03:16:44;;;;;;;;;;;27.40;99.90;;;;;;5055002;28;19951;-75
2021/12/20 03:19:11;;;;;;;;;;;27.10;99.90;;;;;;5055045;28;19913;-74
2021/12/20 03:21:38;;;;;;;;;;;27.00;99.90;;;;;;5054943;28;19909;-75
2021/12/20 03:24:05;;;;;;;;;;;27.20;99.90;;;;;;5054701;28;20399;-73
2021/12/20 03:26:32;;;;;;;;;;;27.30;99.90;;;;;;5054650;28;20363;-72
2021/12/20 03:28:59;;;;;;;;;;;27.40;99.90;;;;;;5054850;28;19921;-72
2021/12/20 03:31:26;;;;;;;;;;;27.50;99.90;;;;;;5054917;28;19909;-74
2021/12/20 03:33:52;;;;;;;;;;;27.50;99.90;;;;;;5054568;28;19984;-74
2021/12/20 03:36:19;;;;;;;;;;;27.40;99.90;;;;;;5054666;28;19944;-74
2021/12/20 03:38:46;;;;;;;;;;;27.40;99.90;;;;;;5054659;28;19916;-74
2021/12/20 03:41:12;;;;;;;;;;;27.40;99.90;;;;;;5055244;28;19963;-72
2021/12/20 03:43:39;;;;;;;;;;;27.40;99.90;;;;;;5055591;28;20325;-73
2021/12/20 03:46:06;;;;;;;;;;;27.30;99.90;;;;;;5055282;28;19909;-72
2021/12/20 03:48:33;;;;;;;;;;;27.20;99.90;;;;;;5054411;28;20046;-74
2021/12/20 03:51:01;;;;;;;;;;;27.30;99.90;;;;;;5054653;28;19951;-71
2021/12/20 03:53:31;;;;;;;;;;;27.50;99.90;;;;;;5052850;28;20316;-71
2021/12/20 03:55:58;;;;;;;;;;;27.50;99.90;;;;;;5054506;28;19954;-72
2021/12/20 03:58:28;;;;;;;;;;;27.40;99.90;;;;;;5054321;28;19988;-72
2021/12/20 04:00:55;;;;;;;;;;;27.20;99.90;;;;;;5053819;28;19959;-71
2021/12/20 04:03:23;;;;;;;;;;;27.30;99.90;;;;;;5053985;28;20013;-71
2021/12/20 04:05:49;;;;;;;;;;;27.40;99.90;;;;;;5053887;28;19912;-73
2021/12/20 04:08:16;;;;;;;;;;;27.40;99.90;;;;;;5053870;28;19917;-71
2021/12/20 04:10:43;;;;;;;;;;;27.50;99.90;;;;;;5053768;28;19925;-71
2021/12/20 04:13:10;;;;;;;;;;;27.40;99.90;;;;;;5085906;28;19996;-71
2021/12/20 04:15:37;;;;;;;;;;;27.30;99.90;;;;;;5054156;28;19912;-73
2021/12/20 04:18:05;;;;;;;;;;;27.30;99.90;;;;;;5053549;28;19963;-72
2021/12/20 04:20:31;;;;;;;;;;;27.30;99.90;;;;;;5053729;28;19908;-71
2021/12/20 04:22:58;;;;;;;;;;;27.30;99.90;;;;;;5053612;28;19916;-72
2021/12/20 04:25:25;;;;;;;;;;;27.30;99.90;;;;;;5053021;28;19963;-71
2021/12/20 04:27:51;;;;;;;;;;;27.20;99.90;;;;;;5053370;28;19916;-71
2021/12/20 04:30:18;;;;;;;;;;;27.20;99.90;;;;;;5053719;28;19921;-72
2021/12/20 04:32:46;;;;;;;;;;;27.20;99.90;;;;;;5052092;28;19912;-73
2021/12/20 04:35:14;;;;;;;;;;;27.30;99.90;;;;;;5053765;28;19915;-73
2021/12/20 04:37:43;;;;;;;;;;;27.30;99.90;;;;;;5053746;28;19908;-73
2021/12/20 04:40:15;;;;;;;;;;;27.00;99.90;;;;;;5053499;28;19917;-72
2021/12/20 04:42:41;;;;;;;;;;;27.10;99.90;;;;;;5053519;28;19964;-72
2021/12/20 04:45:08;;;;;;;;;;;26.90;99.90;;;;;;5053458;28;19913;-73
2021/12/20 04:47:35;;;;;;;;;;;27.10;99.90;;;;;;5052999;28;20407;-73
2021/12/20 04:50:01;;;;;;;;;;;27.20;99.90;;;;;;5053389;28;20272;-74
2021/12/20 04:52:28;;;;;;;;;;;27.10;99.90;;;;;;5053218;28;19916;-74
2021/12/20 04:54:55;;;;;;;;;;;26.90;99.90;;;;;;5053156;28;20046;-74
2021/12/20 04:57:22;;;;;;;;;;;26.90;99.90;;;;;;5053157;28;19916;-74
2021/12/20 04:59:49;;;;;;;;;;;26.90;99.90;;;;;;5052857;28;20303;-74
2021/12/20 05:02:15;;;;;;;;;;;26.90;99.90;;;;;;5053012;28;19916;-74
2021/12/20 05:04:42;;;;;;;;;;;26.90;99.90;;;;;;5052908;28;19916;-74
2021/12/20 05:07:09;;;;;;;;;;;26.80;99.90;;;;;;5052734;28;19939;-74
2021/12/20 05:09:39;;;;;;;;;;;26.70;99.90;;;;;;5052550;28;20410;-74
2021/12/20 05:12:14;;;;;;;;;;;26.60;99.90;;;;;;5052441;28;20375;-74
2021/12/20 05:14:44;;;;;;;;;;;26.70;99.90;;;;;;5052550;28;19909;-73
2021/12/20 05:17:12;;;;;;;;;;;26.70;99.90;;;;;;5051405;28;20437;-73
2021/12/20 05:19:40;;;;;;;;;;;26.70;99.90;;;;;;5052639;28;20322;-72
2021/12/20 05:22:06;;;;;;;;;;;26.80;99.90;;;;;;5052522;28;19917;-72
2021/12/20 05:24:33;;;;;;;;;;;26.70;99.90;;;;;;5052486;28;19916;-74
2021/12/20 05:27:00;;;;;;;;;;;26.70;99.90;;;;;;5052449;28;19920;-75
2021/12/20 05:29:27;;;;;;;;;;;26.60;99.90;;;;;;5052304;28;19920;-74
2021/12/20 05:31:54;;;;;;;;;;;26.70;99.90;;;;;;5052225;28;19909;-73
2021/12/20 05:34:21;;;;;;;;;;;26.70;99.90;;;;;;5052421;28;19909;-74
2021/12/20 05:36:47;;;;;;;;;;;26.70;99.90;;;;;;5052017;28;19909;-73
2021/12/20 05:39:14;;;;;;;;;;;26.70;99.90;;;;;;5051805;28;20003;-73
2021/12/20 05:41:41;;;;;;;;;;;26.60;99.90;;;;;;5052193;28;19971;-73
2021/12/20 05:44:08;;;;;;;;;;;26.60;99.90;;;;;;5052184;28;19909;-74
2021/12/20 05:46:35;;;;;;;;;;;26.60;99.90;;;;;;5052042;28;19909;-71
2021/12/20 05:49:01;;;;;;;;;;;26.60;99.90;;;;;;5052096;28;20290;-71
2021/12/20 05:51:29;;;;;;;;;;;26.60;99.90;;;;;;5050560;28;20368;-72
2021/12/20 05:53:55;;;;;;;;;;;26.60;99.90;;;;;;5082229;28;20019;-76
2021/12/20 05:56:22;;;;;;;;;;;26.70;99.90;;;;;;5050274;28;19912;-74
2021/12/20 05:58:49;;;;;;;;;;;26.70;99.90;;;;;;5050175;28;19979;-75
2021/12/20 06:01:15;;;;;;;;;;;26.70;99.90;;;;;;5049979;28;20015;-76
2021/12/20 06:03:42;;;;;;;;;;;26.80;99.90;;;;;;5050158;28;19909;-72
2021/12/20 06:06:09;;;;;;;;;;;26.70;99.90;;;;;;5049455;28;20011;-73
2021/12/20 06:08:36;;;;;;;;;;;26.70;99.90;;;;;;5049920;28;19970;-70
2021/12/20 06:11:02;;;;;;;;;;;26.80;99.90;;;;;;5049741;28;19952;-72
2021/12/20 06:13:29;;;;;;;;;;;26.70;99.90;;;;;;5049962;28;19913;-72
2021/12/20 06:15:56;;;;;;;;;;;26.60;99.90;;;;;;5049805;28;20007;-73
2021/12/20 06:18:22;;;;;;;;;;;26.50;99.90;;;;;;5048302;28;19913;-75
2021/12/20 06:20:52;;;;;;;;;;;26.50;99.90;;;;;;5050003;28;20015;-74
2021/12/20 06:23:18;;;;;;;;;;;26.50;99.90;;;;;;5050082;28;19966;-72
2021/12/20 06:25:45;;;;;;;;;;;26.40;99.90;;;;;;5049794;28;19913;-73
2021/12/20 06:28:12;;;;;;;;;;;26.40;99.90;;;;;;5049907;28;19921;-72
2021/12/20 06:30:38;;;;;;;;;;;26.40;99.90;;;;;;5049355;28;19919;-72
2021/12/20 06:33:06;;;;;;;;;;;26.40;99.90;;;;;;5049943;28;19958;-74
2021/12/20 06:35:33;;;;;;;;;;;26.50;99.90;;;;;;5049522;28;19948;-74
2021/12/20 06:38:01;;;;;;;;;;;26.40;99.90;;;;;;5049631;28;19913;-74
2021/12/20 06:40:28;;;;;;;;;;;26.40;99.90;;;;;;5049758;28;19940;-74
2021/12/20 06:42:55;;;;;;;;;;;26.40;99.90;;;;;;5049231;28;20279;-74
2021/12/20 06:45:22;;;;;;;;;;;26.40;99.90;;;;;;5049707;28;19944;-75
2021/12/20 06:47:48;;;;;;;;;;;26.50;99.90;;;;;;5050340;28;19913;-74
2021/12/20 06:50:15;;;;;;;;;;;26.40;99.90;;;;;;5053239;28;20349;-74
2021/12/20 06:52:42;;;;;;;;;;;26.50;99.90;;;;;;5053721;28;19916;-75
2021/12/20 06:55:09;;;;;;;;;;;26.30;99.90;;;;;;5053187;28;19916;-75
2021/12/20 06:57:36;;;;;;;;;;;26.20;99.90;;;;;;5052967;28;20248;-74
2021/12/20 07:00:04;;;;;;;;;;;26.20;99.90;;;;;;5052887;28;19908;-74
2021/12/20 07:02:30;;;;;;;;;;;26.20;99.90;;;;;;5052955;28;19908;-73
2021/12/20 07:04:57;;;;;;;;;;;26.20;99.90;;;;;;5053022;28;19916;-74
2021/12/20 07:07:24;;;;;;;;;;;26.10;99.90;;;;;;5052898;28;19920;-73
2021/12/20 07:09:51;;;;;;;;;;;26.10;99.90;;;;;;5052858;28;19940;-75
2021/12/20 07:12:17;;;;;;;;;;;26.20;99.90;;;;;;5053192;28;19913;-74
2021/12/20 07:14:48;;;;;;;;;;;26.20;99.90;;;;;;5052644;28;19966;-73
2021/12/20 07:17:15;;;;;;;;;;;26.00;99.90;;;;;;5052753;28;20287;-73
2021/12/20 07:19:42;;;;;;;;;;;26.00;99.90;;;;;;5052867;28;19916;-73
2021/12/20 07:22:09;;;;;;;;;;;25.80;99.90;;;;;;5052961;28;20334;-75
2021/12/20 07:24:35;;;;;;;;;;;25.80;99.90;;;;;;5054061;28;19913;-74
2021/12/20 07:27:02;;;;;;;;;;;25.90;99.90;;;;;;5053145;28;19920;-73
2021/12/20 07:29:29;;;;;;;;;;;25.80;99.90;;;;;;5053020;28;20007;-74
2021/12/20 07:31:55;;;;;;;;;;;25.70;99.90;;;;;;5052274;28;19916;-74
2021/12/20 07:34:48;;;;;;;;;;;25.60;99.90;;;;;;5056258;28;19947;-75
2021/12/20 07:37:15;;;;;;;;;;;25.70;99.90;;;;;;5052689;28;19959;-75
2021/12/20 07:39:42;;;;;;;;;;;25.70;99.90;;;;;;5054413;28;20334;-75
2021/12/20 07:42:09;;;;;;;;;;;25.70;99.90;;;;;;5052186;28;20366;-74
2021/12/20 07:44:36;;;;;;;;;;;25.60;99.90;;;;;;5052610;28;19928;-74
2021/12/20 07:47:02;;;;;;;;;;;25.50;99.90;;;;;;5052196;28;19920;-74
2021/12/20 07:49:29;;;;;;;;;;;25.40;99.90;;;;;;5052194;28;20419;-74
2021/12/20 07:51:56;;;;;;;;;;;25.40;99.90;;;;;;5051809;28;20054;-75
2021/12/20 07:54:22;;;;;;;;;;;25.30;99.90;;;;;;5052531;28;19913;-75
2021/12/20 07:56:49;;;;;;;;;;;25.30;99.90;;;;;;5051456;28;19913;-73
2021/12/20 07:59:16;;;;;;;;;;;25.30;99.90;;;;;;5051164;28;19909;-73
2021/12/20 08:01:43;;;;;;;;;;;25.30;99.90;;;;;;5050641;28;20228;-73
2021/12/20 08:04:09;;;;;;;;;;;25.40;99.90;;;;;;5052134;28;19912;-76
2021/12/20 08:06:36;;;;;;;;;;;25.40;99.90;;;;;;5053882;28;20287;-75
2021/12/20 08:09:04;;;;;;;;;;;25.30;99.90;;;;;;5053876;28;20352;-77
2021/12/20 08:11:30;;;;;;;;;;;25.30;99.90;;;;;;5053585;28;19909;-77
2021/12/20 08:13:57;;;;;;;;;;;25.30;99.90;;;;;;5052405;28;20321;-76
2021/12/20 08:16:24;;;;;;;;;;;25.30;99.90;;;;;;5053856;28;19909;-76
2021/12/20 08:18:51;;;;;;;;;;;25.30;99.90;;;;;;5054164;28;19909;-76
2021/12/20 08:21:17;;;;;;;;;;;25.30;99.90;;;;;;5054170;28;19909;-74
2021/12/20 08:23:44;;;;;;;;;;;25.20;99.90;;;;;;5054029;28;19948;-76
2021/12/20 08:26:11;;;;;;;;;;;25.30;99.90;;;;;;5053145;28;19944;-75
2021/12/20 08:28:38;;;;;;;;;;;25.20;99.90;;;;;;5053966;28;20346;-75
2021/12/20 08:31:05;;;;;;;;;;;25.20;99.90;;;;;;5053605;28;19908;-74
2021/12/20 08:33:35;;;;;;;;;;;25.20;99.90;;;;;;5053641;28;19925;-76
2021/12/20 08:36:09;;;;;;;;;;;25.20;99.90;;;;;;5053500;28;19909;-76
2021/12/20 08:38:36;;;;;;;;;;;25.20;99.90;;;;;;5053666;28;20012;-75
2021/12/20 08:41:02;;;;;;;;;;;25.20;99.90;;;;;;5053050;28;19913;-75
2021/12/20 08:43:29;;;;;;;;;;;25.20;99.90;;;;;;5053522;28;19917;-73
2021/12/20 08:45:59;;;;;;;;;;;25.20;99.90;;;;;;5053078;28;19909;-73
2021/12/20 08:48:26;;;;;;;;;;;25.10;99.90;;;;;;5053360;28;20421;-75
2021/12/20 08:50:53;;;;;;;;;;;25.00;99.90;;;;;;5053544;28;19908;-74
2021/12/20 08:53:19;;;;;;;;;;;25.00;99.90;;;;;;5053211;28;19936;-74
2021/12/20 08:55:46;;;;;;;;;;;25.00;99.90;;;;;;5052244;28;19935;-73
2021/12/20 08:58:13;;;;;;;;;;;25.00;99.90;;;;;;5052997;28;20267;-76
2021/12/20 09:00:39;;;;;;;;;;;24.90;99.90;;;;;;5051705;28;20012;-73
2021/12/20 09:03:06;;;;;;;;;;;24.90;99.90;;;;;;5053121;28;19913;-75
2021/12/20 09:05:34;;;;;;;;;;;24.90;99.90;;;;;;5053117;28;20011;-75
2021/12/20 09:08:01;;;;;;;;;;;24.90;99.90;;;;;;5052808;28;19921;-76
2021/12/20 09:10:31;;;;;;;;;;;24.90;99.90;;;;;;5052795;28;19920;-76
2021/12/20 09:12:58;;;;;;;;;;;24.80;99.90;;;;;;5052930;28;20236;-74
2021/12/20 09:15:24;;;;;;;;;;;24.80;99.90;;;;;;5071386;28;20255;-75
2021/12/20 09:17:52;;;;;;;;;;;24.80;99.90;;;;;;5070649;28;20268;-75
2021/12/20 09:20:21;;;;;;;;;;;24.80;99.90;;;;;;5072285;28;19916;-76
2021/12/20 09:22:58;;;;;;;;;;;24.70;99.90;;;;;;5072295;28;19908;-76
2021/12/20 09:25:26;;;;;;;;;;;24.80;99.90;;;;;;5072382;28;19940;-73
2021/12/20 09:27:54;;;;;;;;;;;24.70;99.90;;;;;;5072153;28;19939;-75
2021/12/20 09:30:21;;;;;;;;;;;24.70;99.90;;;;;;5072567;28;19909;-74
2021/12/20 09:32:48;;;;;;;;;;;24.70;99.90;;;;;;5072646;28;19908;-73
2021/12/20 09:35:15;;;;;;;;;;;24.60;99.90;;;;;;5072702;28;19908;-74
2021/12/20 09:37:42;;;;;;;;;;;24.60;99.90;;;;;;5072503;28;19954;-72
2021/12/20 09:40:13;;;;;;;;;;;24.60;99.90;;;;;;5071278;28;19951;-71
2021/12/20 09:42:47;;;;;;;;;;;24.60;99.90;;;;;;5071117;28;20010;-75
2021/12/20 09:45:17;;;;;;;;;;;24.60;99.90;;;;;;5071884;28;20018;-74
2021/12/20 09:47:43;;;;;;;;;;;24.60;99.90;;;;;;5071896;28;20007;-74
2021/12/20 09:50:12;;;;;;;;;;;24.60;99.90;;;;;;5072358;28;20335;-72
2021/12/20 09:52:39;;;;;;;;;;;24.60;99.90;;;;;;5072574;28;19909;-72
2021/12/20 09:55:06;;;;;;;;;;;24.50;99.90;;;;;;5072637;28;20286;-75
2021/12/20 09:57:34;;;;;;;;;;;24.50;99.90;;;;;;5072455;28;19934;-72
2021/12/20 10:00:01;;;;;;;;;;;24.50;99.90;;;;;;5072043;28;19916;-72
2021/12/20 10:02:28;;;;;;;;;;;24.50;99.90;;;;;;5072387;28;19908;-72
2021/12/20 10:04:55;;;;;;;;;;;24.50;99.90;;;;;;5072407;28;19909;-73
2021/12/20 10:07:24;;;;;;;;;;;24.50;99.90;;;;;;5072217;28;19908;-76
2021/12/20 10:09:51;;;;;;;;;;;24.50;99.90;;;;;;5072010;28;20378;-73
2021/12/20 10:12:18;;;;;;;;;;;24.50;99.90;;;;;;5072408;28;19920;-75
2021/12/20 10:15:15;;;;;;;;;;;24.50;99.90;;;;;;5071987;28;20247;-75
2021/12/20 10:17:56;;;;;;;;;;;24.50;99.90;;;;;;5058116;28;19908;-75
2021/12/20 10:20:24;;;;;;;;;;;24.50;99.90;;;;;;5052300;28;19908;-74
2021/12/20 10:22:52;;;;;;;;;;;24.40;99.90;;;;;;5053713;28;19916;-74
2021/12/20 10:25:23;;;;;;;;;;;24.40;99.90;;;;;;5056120;28;19924;-75
2021/12/20 10:27:50;;;;;;;;;;;24.50;99.90;;;;;;5055780;28;19920;-75
2021/12/20 10:30:24;;;;;;;;;;;24.50;99.90;;;;;;5056038;28;20264;-75
2021/12/20 10:32:50;;;;;;;;;;;24.40;99.90;;;;;;5055967;28;19910;-74
2021/12/20 10:35:27;;;;;;;;;;;24.40;99.90;;;;;;5056066;28;19909;-75
2021/12/20 10:37:58;;;;;;;;;;;24.40;99.90;;;;;;5055870;28;20011;-72
2021/12/20 10:40:26;;;;;;;;;;;24.40;99.90;;;;;;5056290;28;19912;-75
2021/12/20 10:42:54;;;;;;;;;;;24.40;99.90;;;;;;5056318;28;20018;-74
2021/12/20 10:45:21;;;;;;;;;;;24.40;99.90;;;;;;5056029;28;19909;-73
2021/12/20 10:47:48;;;;;;;;;;;24.40;99.90;;;;;;5088016;28;19925;-73
2021/12/20 10:50:24;;;;;;;;;;;24.30;99.90;;;;;;5056589;28;19963;-71
2021/12/20 10:52:51;;;;;;;;;;;24.30;99.90;;;;;;5056735;28;19912;-75
2021/12/20 10:55:38;;;;;;;;;;;24.30;99.90;;;;;;5055794;28;20339;-72
2021/12/20 10:58:23;;;;;;;;;;;24.30;99.90;;;;;;5055346;28;19916;-73
2021/12/20 11:01:05;;;;;;;;;;;24.30;99.90;;;;;;5055227;28;19959;-72
2021/12/20 11:03:36;;;;;;;;;;;24.40;99.90;;;;;;5055510;28;19952;-73
2021/12/20 11:11:27;;;;;;;;;;;24.30;99.90;;;;;;5055318;28;20311;-73
2021/12/20 11:13:54;;;;;;;;;;;24.40;99.90;;;;;;5054969;28;19931;-72
2021/12/20 11:16:28;;;;;;;;;;;24.30;99.90;;;;;;5055268;28;19909;-76
2021/12/20 11:19:14;;;;;;;;;;;24.40;99.90;;;;;;5055286;28;19996;-73
2021/12/20 11:21:58;;;;;;;;;;;24.40;99.90;;;;;;5055153;28;19932;-74
2021/12/20 11:24:33;;;;;;;;;;;24.40;99.90;;;;;;5055358;28;19951;-73
2021/12/20 11:27:00;;;;;;;;;;;24.40;99.90;;;;;;5055044;28;19940;-73
2021/12/20 11:29:27;;;;;;;;;;;24.40;99.90;;;;;;5054864;28;20007;-72
2021/12/20 11:31:55;;;;;;;;;;;24.40;99.90;;;;;;5054811;28;19909;-73
2021/12/20 11:34:22;;;;;;;;;;;24.40;99.90;;;;;;5054864;28;19909;-74
2021/12/20 11:36:49;;;;;;;;;;;24.40;99.90;;;;;;5054873;28;19912;-75
2021/12/20 11:39:16;;;;;;;;;;;24.40;99.90;;;;;;5054801;28;20688;-73
2021/12/20 11:41:42;;;;;;;;;;;24.40;99.90;;;;;;5054815;28;19909;-73
2021/12/20 11:44:13;;;;;;;;;;;24.40;99.90;;;;;;5054363;28;19909;-73
2021/12/20 11:46:57;;;;;;;;;;;24.40;99.90;;;;;;5054609;28;19952;-74
2021/12/20 11:49:25;;;;;;;;;;;24.40;99.90;;;;;;5054670;28;19969;-73
2021/12/20 11:51:55;;;;;;;;;;;24.40;99.90;;;;;;5054252;28;20405;-74
2021/12/20 11:54:35;;;;;;;;;;;24.30;99.90;;;;;;5054507;28;19909;-72
2021/12/20 11:57:02;;;;;;;;;;;24.30;99.90;;;;;;5053744;28;19916;-73
2021/12/20 11:59:48;;;;;;;;;;;24.30;99.90;;;;;;5054440;28;20391;-74
2021/12/20 12:02:31;;;;;;;;;;;24.30;99.90;;;;;;5054684;28;19909;-75
2021/12/20 12:04:58;;;;;;;;;;;24.30;99.90;;;;;;5054936;28;19916;-72
2021/12/20 12:07:26;;;;;;;;;;;24.20;99.90;;;;;;5054222;28;20320;-73
2021/12/20 12:09:58;;;;;;;;;;;24.30;99.90;;;;;;5053806;28;19921;-74
2021/12/20 12:12:26;;;;;;;;;;;24.20;99.90;;;;;;5053655;28;19916;-74
2021/12/20 12:15:04;;;;;;;;;;;24.20;99.90;;;;;;5054322;28;19978;-72
2021/12/20 12:17:49;;;;;;;;;;;24.20;99.90;;;;;;5054167;28;19916;-73
2021/12/20 12:20:35;;;;;;;;;;;24.10;99.90;;;;;;5053765;28;20059;-73
2021/12/20 12:23:15;;;;;;;;;;;24.10;99.90;;;;;;5053931;28;20283;-73
2021/12/20 12:25:44;;;;;;;;;;;24.10;99.90;;;;;;5053946;28;19909;-75
2021/12/20 12:28:12;;;;;;;;;;;24.10;99.90;;;;;;5053692;28;19923;-75
2021/12/20 12:30:40;;;;;;;;;;;24.10;99.90;;;;;;5053692;28;19917;-75
2021/12/20 12:33:12;;;;;;;;;;;24.10;99.90;;;;;;5053784;28;20379;-75
2021/12/20 12:35:51;;;;;;;;;;;24.10;99.90;;;;;;5053708;28;19909;-75
2021/12/20 12:38:19;;;;;;;;;;;24.00;99.90;;;;;;5053784;28;19952;-75
2021/12/20 12:40:49;;;;;;;;;;;24.10;99.90;;;;;;5053623;28;19968;-76
2021/12/20 12:43:16;;;;;;;;;;;24.10;99.90;;;;;;5053756;28;19909;-76
2021/12/20 12:45:58;;;;;;;;;;;24.10;99.90;;;;;;5052701;28;19951;-76
2021/12/20 12:48:54;;;;;;;;;;;24.00;99.90;;;;;;5053426;28;19917;-76
2021/12/20 12:51:20;;;;;;;;;;;24.00;99.90;;;;;;5048554;28;19909;-76
2021/12/20 12:53:48;;;;;;;;;;;24.00;99.90;;;;;;5053145;28;19909;-76
2021/12/20 12:56:24;;;;;;;;;;;24.00;99.90;;;;;;5053355;28;19909;-76
2021/12/20 12:59:09;;;;;;;;;;;24.00;99.90;;;;;;5053144;28;20355;-73
2021/12/20 13:01:37;;;;;;;;;;;24.00;99.90;;;;;;5053203;28;19944;-76
2021/12/20 13:04:04;;;;;;;;;;;24.00;99.90;;;;;;5053039;28;19909;-76
2021/12/20 13:06:31;;;;;;;;;;;24.00;99.90;;;;;;5053150;28;20008;-76
2021/12/20 13:09:00;;;;;;;;;;;24.00;99.90;;;;;;5052763;28;20371;-75
2021/12/20 13:11:29;;;;;;;;;;;23.90;99.90;;;;;;5052259;28;19916;-76
2021/12/20 13:14:12;;;;;;;;;;;24.00;99.90;;;;;;5051763;28;19956;-75
2021/12/20 13:16:50;;;;;;;;;;;24.00;99.90;;;;;;5051217;28;19908;-76
2021/12/20 13:19:30;;;;;;;;;;;23.90;99.90;;;;;;5052229;28;20008;-74
2021/12/20 13:21:57;;;;;;;;;;;23.90;99.90;;;;;;5052042;28;19916;-76
2021/12/20 13:24:24;;;;;;;;;;;24.00;99.90;;;;;;5052041;28;19912;-75
2021/12/20 13:26:51;;;;;;;;;;;24.00;99.90;;;;;;5052017;28;19909;-76
2021/12/20 13:29:17;;;;;;;;;;;23.90;99.90;;;;;;5051815;28;20360;-75
2021/12/20 13:31:44;;;;;;;;;;;23.90;99.90;;;;;;5052132;28;20386;-75
2021/12/20 13:34:14;;;;;;;;;;;23.90;99.90;;;;;;5051882;28;19915;-75
2021/12/20 13:36:50;;;;;;;;;;;23.90;99.90;;;;;;5051983;28;19909;-76
2021/12/20 13:39:17;;;;;;;;;;;23.80;99.90;;;;;;5051993;28;20004;-76
2021/12/20 13:41:44;;;;;;;;;;;23.80;99.90;;;;;;5051982;28;19947;-75
2021/12/20 13:44:13;;;;;;;;;;;23.70;99.90;;;;;;5051405;28;19913;-75
2021/12/20 13:46:43;;;;;;;;;;;23.70;99.90;;;;;;5051731;28;19913;-76
2021/12/20 13:49:22;;;;;;;;;;;23.70;99.90;;;;;;5051582;28;19979;-76
2021/12/20 13:51:55;;;;;;;;;;;23.70;99.90;;;;;;5051591;28;19963;-75
2021/12/20 13:54:42;;;;;;;;;;;23.70;99.90;;;;;;5051764;28;19909;-77
2021/12/20 13:57:14;;;;;;;;;;;23.70;99.90;;;;;;5050372;28;19909;-76
2021/12/20 13:59:54;;;;;;;;;;;23.70;99.90;;;;;;5051431;28;19916;-76
2021/12/20 14:02:25;;;;;;;;;;;23.70;99.90;;;;;;5051688;28;20062;-76
2021/12/20 14:04:52;;;;;;;;;;;23.70;99.90;;;;;;5051592;28;19909;-76
2021/12/20 14:07:27;;;;;;;;;;;23.70;99.90;;;;;;5051576;28;19909;-76
2021/12/20 14:10:03;;;;;;;;;;;23.70;99.90;;;;;;4928478;28;3509228;-75
2021/12/20 14:12:40;;;;;;;;;;;23.70;99.90;;;;;;5052343;28;21304;-77
2021/12/20 14:15:11;;;;;;;;;;;23.70;99.90;;;;;;5052040;28;19948;-75
2021/12/20 14:17:55;;;;;;;;;;;23.70;99.90;;;;;;5052285;28;19915;-76
2021/12/20 14:20:23;;;;;;;;;;;23.70;99.90;;;;;;5052339;28;20236;-76
2021/12/20 14:23:00;;;;;;;;;;;23.60;99.90;;;;;;5052347;28;19912;-75
2021/12/20 14:25:37;;;;;;;;;;;23.60;99.90;;;;;;5052105;28;20003;-75
2021/12/20 14:28:14;;;;;;;;;;;23.60;99.90;;;;;;5051777;28;19956;-76
2021/12/20 14:30:49;;;;;;;;;;;23.60;99.90;;;;;;5052103;28;19909;-74
2021/12/20 14:33:19;;;;;;;;;;;23.60;99.90;;;;;;5052115;28;19913;-76
2021/12/20 14:35:53;;;;;;;;;;;23.60;99.90;;;;;;5052084;28;19954;-76
2021/12/20 14:38:32;;;;;;;;;;;23.60;99.90;;;;;;5052123;28;19919;-76
2021/12/20 14:41:00;;;;;;;;;;;23.50;99.90;;;;;;5052125;28;19909;-74
2021/12/20 14:43:30;;;;;;;;;;;23.60;99.90;;;;;;5051963;28;19951;-76
2021/12/20 14:46:27;;;;;;;;;;;23.60;99.90;;;;;;5051919;28;19909;-76
2021/12/20 14:49:01;;;;;;;;;;;23.50;99.90;;;;;;5050179;28;19917;-76